Flugschule & Pilotenausbildung

Flugschule

Flugschule

Wir bieten eine professionelle und umfassende Ausbildung.

Flugwetter Augsburg

[Quelle: ADDS]
METAR
EDMA 230420Z AUTO 25015KT 2500 // BKN006/// BKN013/// OVC016/// 00/M00 Q0997 =
EDMA 221700Z 2218/2303 04004KT CAVOK BECMG 2220/2223 33008KT BKN008 BECMG 2300/2302 RA BECMG 2302/2303 27012KT 1200 SN BKN004
TAF
EDMA 221700Z 2218/2303 04004KT CAVOK BECMG 2220/2223 33008KT BKN008 BECMG 2300/2302 RA BECMG 2302/2303 27012KT 1200 SN BKN004 =

Kontakt

Flugschule und Pilotenausbildung

Wir bieten eine professionelle und umfassende Ausbildung durch unsere erfahrenen Piloten, Fluglehrer und Prüfer, die Sie zum Erwerb der folgenden Lizenzen führen:

  • Leichtflugzeugpilot: LAPL (A)
  • Privatpilot: PPL (A)
  • Nachtflug: NVFR
  • Competency based IR/IFR: CB-IR(A)
  • Enroute Instrument Rating: EIR(A)
  • Instrument Rating: IR(A)
  • Commercial Pilot Licence: CPL (A)
  • Airline Transport Pilot Licence: ATPL (A)
  • Fluglehrer: PPL (A)
  • Fluglehrer: IRI (A)
  • Checkflüge: IR Check Flight SEP
  • Type Rating
  • Erneuerung / Verlängerung Klassenberechtigung
  • Sprechfunk: AZF und BZF 1 & 2
  • Sprachtests: Language Proficiency English Level 4 & 5 & 6

Sie interessieren sich für eine der oben genannten Ausbildungen? Sie finden alle Ausbildungen oben im Menü unter dem Punkt "Ausbildungen". Klicken Sie dort auf die gewünschte Ausbildung, z.B.  Leichtflugzeugpilot: LAPL (A).


Schulungsräume

Je nach Teilnehmerzahl findet der Unterricht in zwei vollausgestatteten Räumen statt.

Bis 5 Teilnehmer in Feldgeding bei Dachau:

Munich Aviation Company: Schulungsraum Feldgeding

Bei 6 oder mehr Teilnehmern in Gröbenzell:

Munich Aviation Company: Schulungsraum in Gröbenzell

Flugzeuge

Wir schulen auf unseren eigenen Flugzeugen. Mehr Informationen zu unseren Flugzeugen finden Sie hier: Unsere Flugzeuge